Time;durP1;ratioP1;P1;durP2;ratioP2;P2;SDS_P1;SDS_P2;PMS_P1;PMS_P2;Temp;Humidity;BMP_temperature;BMP_pressure;BME280_temperature;BME280_humidity;BME280_pressure;Samples;Min_cycle;Max_cycle;Signal;HPM_P1;HPM_P2
2023/06/19 00:00:27;;;;;;;15.80;8.97;;;20.60;10.30;;;;;;5030037;28;46262;-76
2023/06/19 00:02:53;;;;;;;13.40;8.43;;;20.50;11.00;;;;;;5028725;28;46411;-75
2023/06/19 00:05:19;;;;;;;15.70;8.40;;;20.30;11.60;;;;;;5028283;28;46999;-76
2023/06/19 00:07:44;;;;;;;15.80;8.67;;;20.20;11.50;;;;;;5032650;28;46842;-75
2023/06/19 00:10:10;;;;;;;13.73;8.67;;;20.10;11.40;;;;;;5025967;28;47600;-78
2023/06/19 00:12:36;;;;;;;13.80;9.30;;;20.20;11.50;;;;;;5029987;28;46648;-77
2023/06/19 00:15:02;;;;;;;12.67;8.27;;;20.20;11.50;;;;;;5028679;28;49287;-76
2023/06/19 00:17:28;;;;;;;14.50;8.83;;;20.10;11.40;;;;;;5028375;28;46589;-76
2023/06/19 00:19:53;;;;;;;14.90;10.07;;;20.00;11.30;;;;;;5027936;28;46520;-76
2023/06/19 00:22:19;;;;;;;13.60;9.50;;;19.90;11.30;;;;;;5025901;28;45963;-76
2023/06/19 00:24:45;;;;;;;19.73;9.30;;;19.70;11.80;;;;;;5031751;28;48041;-76
2023/06/19 00:27:11;;;;;;;14.03;9.03;;;19.60;12.20;;;;;;5027728;28;46466;-78
2023/06/19 00:29:36;;;;;;;17.90;9.50;;;19.40;12.60;;;;;;5030545;28;46788;-77
2023/06/19 00:32:02;;;;;;;17.17;9.70;;;19.30;13.00;;;;;;5030844;28;47018;-77
2023/06/19 00:34:29;;;;;;;17.43;9.40;;;19.20;13.40;;;;;;5028384;28;46414;-76
2023/06/19 00:36:56;;;;;;;18.63;9.37;;;19.20;13.50;;;;;;5030274;28;46485;-76
2023/06/19 00:39:26;;;;;;;18.30;10.57;;;19.10;13.20;;;;;;5034203;28;46478;-76
2023/06/19 00:41:52;;;;;;;14.23;9.53;;;19.00;14.10;;;;;;5029070;28;46779;-78
2023/06/19 00:44:17;;;;;;;18.23;9.23;;;19.00;14.10;;;;;;5032080;28;46669;-76
2023/06/19 00:46:43;;;;;;;14.80;9.20;;;19.10;14.30;;;;;;5028753;28;45866;-77
2023/06/19 00:49:09;;;;;;;20.53;9.80;;;19.00;14.30;;;;;;5029847;28;46320;-75
2023/06/19 00:51:35;;;;;;;16.40;9.87;;;19.00;14.40;;;;;;5031336;28;46007;-77
2023/06/19 00:54:01;;;;;;;14.63;10.00;;;19.00;14.40;;;;;;5032669;28;46571;-78
2023/06/19 00:56:26;;;;;;;13.67;8.83;;;19.00;14.50;;;;;;5030268;28;46340;-78
2023/06/19 00:58:53;;;;;;;20.00;9.37;;;19.20;14.50;;;;;;5028052;28;46962;-76
2023/06/19 01:01:23;;;;;;;14.97;9.60;;;19.30;14.40;;;;;;5032257;28;46452;-78
2023/06/19 01:03:49;;;;;;;14.63;8.87;;;19.40;14.30;;;;;;5039707;28;48635;-79
2023/06/19 01:06:21;;;;;;;18.33;9.70;;;19.40;14.20;;;;;;5033273;28;46356;-75
2023/06/19 01:08:50;;;;;;;16.10;9.07;;;19.50;14.20;;;;;;5038295;28;46516;-78
2023/06/19 01:11:19;;;;;;;15.53;10.50;;;19.60;14.20;;;;;;5030587;28;46607;-77
2023/06/19 01:13:50;;;;;;;14.27;8.87;;;19.60;14.10;;;;;;5032710;28;46603;-77
2023/06/19 01:16:16;;;;;;;14.20;9.13;;;19.60;14.40;;;;;;5033636;28;46521;-77
2023/06/19 01:18:43;;;;;;;12.53;8.60;;;19.60;14.60;;;;;;5030431;28;46494;-78
2023/06/19 01:21:16;;;;;;;15.23;9.80;;;19.60;14.60;;;;;;5032982;28;46766;-77
2023/06/19 01:23:42;;;;;;;16.33;10.00;;;19.60;14.80;;;;;;5033319;28;47491;-76
2023/06/19 01:26:08;;;;;;;13.43;9.83;;;19.60;14.90;;;;;;5030509;28;46721;-77
2023/06/19 01:28:41;;;;;;;13.63;9.73;;;19.50;14.70;;;;;;5028254;28;46430;-77
2023/06/19 01:31:25;;;;;;;13.47;8.83;;;19.50;15.50;;;;;;5028315;28;46328;-78
2023/06/19 01:33:53;;;;;;;15.40;9.63;;;19.40;16.10;;;;;;5032421;28;47316;-76
2023/06/19 01:36:19;;;;;;;14.07;10.20;;;19.40;15.90;;;;;;5028514;28;46694;-77
2023/06/19 01:38:47;;;;;;;16.90;10.50;;;19.40;16.10;;;;;;5032518;28;46780;-77
2023/06/19 01:41:15;;;;;;;14.07;9.90;;;19.40;16.40;;;;;;5031349;28;46812;-77
2023/06/19 01:43:40;;;;;;;18.53;8.90;;;19.30;16.60;;;;;;5029043;28;46533;-76
2023/06/19 01:46:06;;;;;;;15.33;10.00;;;19.40;16.70;;;;;;5031891;28;46340;-76
2023/06/19 01:48:31;;;;;;;15.63;10.13;;;19.50;16.60;;;;;;5031192;28;46482;-77
2023/06/19 01:50:57;;;;;;;14.27;10.10;;;19.50;16.50;;;;;;5029959;28;45989;-77
2023/06/19 01:53:23;;;;;;;17.73;10.40;;;19.60;16.40;;;;;;5034632;28;49512;-76
2023/06/19 01:55:48;;;;;;;16.43;9.97;;;19.50;16.30;;;;;;5030138;28;46639;-77
2023/06/19 01:58:14;;;;;;;14.20;9.40;;;19.50;16.30;;;;;;5027590;28;46587;-77
2023/06/19 02:00:40;;;;;;;15.57;9.93;;;19.50;16.00;;;;;;5029665;28;46470;-77
2023/06/19 02:03:05;;;;;;;14.97;10.80;;;19.40;16.60;;;;;;5042195;28;48110;-77
2023/06/19 02:05:31;;;;;;;16.83;10.77;;;19.40;16.80;;;;;;5029359;28;46450;-77
2023/06/19 02:07:57;;;;;;;16.87;12.00;;;19.40;17.10;;;;;;5030059;28;45871;-79
2023/06/19 02:10:23;;;;;;;12.30;9.80;;;19.40;16.70;;;;;;5036552;28;46490;-76
2023/06/19 02:12:48;;;;;;;14.53;9.87;;;19.40;17.20;;;;;;5034716;28;47123;-77
2023/06/19 02:15:14;;;;;;;15.27;10.40;;;19.40;17.20;;;;;;5031624;28;46745;-77
2023/06/19 02:17:42;;;;;;;16.27;10.30;;;19.40;17.20;;;;;;5028134;28;46973;-77
2023/06/19 02:20:11;;;;;;;22.63;9.93;;;19.50;17.20;;;;;;5031152;28;46462;-77
2023/06/19 02:22:39;;;;;;;15.30;10.53;;;19.50;17.20;;;;;;5033880;28;48147;-77
2023/06/19 02:25:06;;;;;;;15.17;10.73;;;19.60;17.10;;;;;;5029078;28;46463;-76
2023/06/19 02:27:31;;;;;;;15.27;10.50;;;19.60;17.00;;;;;;5027683;28;46449;-77
2023/06/19 02:29:57;;;;;;;20.80;9.77;;;19.60;16.60;;;;;;5031425;28;46944;-77
2023/06/19 02:32:23;;;;;;;16.20;9.57;;;19.50;17.10;;;;;;5032430;28;47651;-76
2023/06/19 02:34:48;;;;;;;16.73;10.33;;;19.50;17.30;;;;;;5035568;28;46533;-78
2023/06/19 02:37:14;;;;;;;16.67;10.63;;;19.50;17.40;;;;;;5029290;28;46807;-77
2023/06/19 02:39:39;;;;;;;14.30;10.23;;;19.50;17.00;;;;;;5031022;28;46456;-77
2023/06/19 02:42:06;;;;;;;15.33;10.60;;;19.50;16.80;;;;;;5027311;28;47030;-78
2023/06/19 02:44:31;;;;;;;16.60;11.73;;;19.50;17.80;;;;;;5030064;28;46492;-78
2023/06/19 02:46:57;;;;;;;16.93;10.20;;;19.50;17.90;;;;;;5030117;28;46600;-79
2023/06/19 02:49:22;;;;;;;13.20;9.80;;;19.60;18.20;;;;;;5028083;28;46768;-80
2023/06/19 02:51:48;;;;;;;16.67;10.80;;;20.80;19.40;;;;;;5028119;28;47140;-77
2023/06/19 02:54:13;;;;;;;19.10;10.87;;;19.40;18.70;;;;;;5032478;28;46817;-78
2023/06/19 02:56:39;;;;;;;15.77;10.83;;;19.40;18.80;;;;;;5026186;28;46416;-76
2023/06/19 02:59:04;;;;;;;17.60;11.77;;;19.40;18.20;;;;;;5030335;28;46411;-77
2023/06/19 03:01:30;;;;;;;19.33;12.23;;;19.40;20.00;;;;;;5035466;28;49237;-77
2023/06/19 03:03:56;;;;;;;19.67;13.00;;;19.40;19.30;;;;;;5028691;28;46547;-76
2023/06/19 03:06:21;;;;;;;23.60;11.30;;;19.50;19.40;;;;;;5025076;28;46465;-77
2023/06/19 03:08:47;;;;;;;15.77;11.20;;;19.40;19.30;;;;;;5029287;28;46414;-75
2023/06/19 03:11:13;;;;;;;15.67;11.33;;;19.50;19.40;;;;;;5030469;28;46653;-77
2023/06/19 03:13:46;;;;;;;14.97;10.97;;;19.60;19.30;;;;;;5026619;28;46411;-78
2023/06/19 03:16:11;;;;;;;23.03;11.90;;;19.60;19.10;;;;;;5031972;28;46505;-76
2023/06/19 03:18:37;;;;;;;17.80;11.83;;;19.70;19.00;;;;;;5028690;28;46409;-77
2023/06/19 03:21:03;;;;;;;17.90;11.40;;;19.70;18.80;;;;;;5035317;28;49036;-78
2023/06/19 03:23:28;;;;;;;19.70;11.80;;;19.80;18.80;;;;;;5026058;28;46257;-77
2023/06/19 03:25:54;;;;;;;15.73;10.60;;;19.90;18.60;;;;;;5032406;28;46527;-76
2023/06/19 03:28:19;;;;;;;15.90;10.93;;;19.90;18.40;;;;;;5030431;28;46428;-77
2023/06/19 03:30:45;;;;;;;16.20;11.20;;;19.90;18.20;;;;;;5026725;28;46462;-77
2023/06/19 03:33:10;;;;;;;19.57;11.67;;;19.90;18.20;;;;;;5032098;28;46503;-77
2023/06/19 03:35:36;;;;;;;15.50;11.30;;;20.00;18.10;;;;;;5028411;28;47476;-77
2023/06/19 03:38:01;;;;;;;14.80;11.13;;;20.00;19.10;;;;;;5031489;28;45828;-77
2023/06/19 03:40:27;;;;;;;17.47;11.50;;;20.00;18.20;;;;;;5032429;28;46550;-77
2023/06/19 03:42:53;;;;;;;19.83;10.30;;;20.10;18.80;;;;;;5033671;28;46789;-77
2023/06/19 03:45:18;;;;;;;16.43;11.40;;;20.10;18.30;;;;;;5029544;28;46625;-77
2023/06/19 03:47:44;;;;;;;19.20;10.83;;;20.10;18.30;;;;;;5036255;28;46430;-78
2023/06/19 03:50:10;;;;;;;14.53;10.53;;;20.20;18.30;;;;;;5029326;28;51472;-78
2023/06/19 03:52:36;;;;;;;17.33;10.87;;;20.20;18.20;;;;;;5029912;28;46462;-78
2023/06/19 03:55:03;;;;;;;16.03;10.83;;;20.20;18.10;;;;;;5030223;28;46438;-77
2023/06/19 03:57:29;;;;;;;15.90;9.90;;;20.20;18.00;;;;;;5026426;28;46488;-78
2023/06/19 03:59:54;;;;;;;15.30;10.90;;;20.30;17.90;;;;;;5026892;28;49208;-78
2023/06/19 04:02:20;;;;;;;17.70;10.13;;;20.30;17.80;;;;;;5032302;28;46460;-77
2023/06/19 04:04:45;;;;;;;14.67;9.43;;;20.30;17.90;;;;;;5027599;28;46592;-77
2023/06/19 04:07:11;;;;;;;13.20;9.07;;;20.20;18.10;;;;;;5029050;28;46437;-78
2023/06/19 04:09:36;;;;;;;13.70;8.73;;;20.20;18.00;;;;;;5028088;28;47026;-77
2023/06/19 04:12:02;;;;;;;12.80;9.50;;;20.30;18.00;;;;;;5027465;28;46400;-77
2023/06/19 04:14:27;;;;;;;13.80;9.27;;;20.40;17.80;;;;;;5027226;28;46469;-76
2023/06/19 04:16:53;;;;;;;13.87;8.80;;;20.50;17.50;;;;;;5029903;28;46602;-77
2023/06/19 04:19:18;;;;;;;15.83;8.17;;;20.60;17.30;;;;;;5035803;28;48348;-78
2023/06/19 04:21:44;;;;;;;14.00;9.10;;;20.70;17.10;;;;;;5033469;28;46827;-79
2023/06/19 04:24:10;;;;;;;12.57;7.80;;;20.70;16.90;;;;;;5030625;28;46456;-77
2023/06/19 04:26:36;;;;;;;18.10;9.03;;;20.80;16.70;;;;;;5034463;28;46613;-76
2023/06/19 04:29:02;;;;;;;13.60;8.57;;;20.90;16.70;;;;;;5031684;28;47626;-77
2023/06/19 04:31:28;;;;;;;12.60;8.50;;;20.80;16.40;;;;;;5036582;28;46286;-77
2023/06/19 04:33:56;;;;;;;13.87;8.77;;;20.90;16.50;;;;;;5034106;28;46624;-76
2023/06/19 04:36:22;;;;;;;13.70;8.87;;;20.90;16.40;;;;;;5037046;28;46519;-76
2023/06/19 04:38:51;;;;;;;13.53;8.60;;;21.00;16.20;;;;;;5034731;28;47824;-76
2023/06/19 04:41:16;;;;;;;15.13;8.50;;;21.00;16.20;;;;;;5033643;28;47053;-77
2023/06/19 04:43:42;;;;;;;14.43;8.73;;;21.00;16.20;;;;;;5033153;28;46411;-76
2023/06/19 04:46:08;;;;;;;11.23;8.00;;;21.20;16.40;;;;;;5031358;28;46709;-77
2023/06/19 04:48:35;;;;;;;11.37;8.23;;;21.10;16.20;;;;;;5047994;28;49788;-76
2023/06/19 04:51:01;;;;;;;14.83;7.93;;;21.20;16.20;;;;;;5031568;28;47958;-77
2023/06/19 04:53:27;;;;;;;10.87;7.33;;;21.30;16.00;;;;;;5034021;28;46525;-77
2023/06/19 04:55:55;;;;;;;10.73;7.37;;;21.40;15.90;;;;;;5035588;28;46748;-76
2023/06/19 04:58:21;;;;;;;10.77;7.37;;;21.70;15.50;;;;;;5030268;28;46561;-77
2023/06/19 05:00:51;;;;;;;9.60;6.70;;;22.50;14.80;;;;;;5032283;28;46623;-78
2023/06/19 05:03:17;;;;;;;11.77;7.00;;;23.40;13.70;;;;;;5028935;28;46698;-76
2023/06/19 05:05:43;;;;;;;10.00;7.20;;;23.90;12.70;;;;;;5031280;28;46771;-77
2023/06/19 05:08:09;;;;;;;10.13;7.50;;;24.60;11.80;;;;;;5036175;28;48081;-76
2023/06/19 05:10:35;;;;;;;11.57;7.30;;;25.50;10.00;;;;;;5030902;28;46592;-77
2023/06/19 05:13:01;;;;;;;11.00;6.77;;;26.10;8.90;;;;;;5030822;28;46085;-77
2023/06/19 05:15:27;;;;;;;11.27;7.03;;;26.60;7.90;;;;;;5032390;28;46431;-76
2023/06/19 05:17:53;;;;;;;12.87;7.53;;;27.00;6.90;;;;;;5030112;28;46466;-77
2023/06/19 05:20:20;;;;;;;13.67;7.43;;;27.80;5.60;;;;;;5036190;28;46364;-77
2023/06/19 05:22:45;;;;;;;8.63;6.60;;;28.30;5.20;;;;;;5029585;28;46962;-77
2023/06/19 05:25:11;;;;;;;10.30;6.87;;;28.70;4.20;;;;;;5036065;28;46464;-76
2023/06/19 05:27:36;;;;;;;11.67;6.50;;;29.20;2.90;;;;;;5034250;28;48400;-76
2023/06/19 05:30:04;;;;;;;9.73;6.90;;;29.90;2.30;;;;;;5030086;28;46402;-76
2023/06/19 05:32:29;;;;;;;8.90;6.00;;;30.60;1.00;;;;;;5030985;28;46351;-75
2023/06/19 05:34:55;;;;;;;12.67;6.47;;;31.40;1.00;;;;;;5032541;28;46566;-76
2023/06/19 05:37:22;;;;;;;10.03;6.17;;;31.00;1.00;;;;;;5029823;28;46332;-77
2023/06/19 05:39:49;;;;;;;11.97;6.00;;;30.20;1.00;;;;;;5031906;28;46669;-77
2023/06/19 05:42:14;;;;;;;9.47;6.50;;;28.80;1.80;;;;;;5031366;28;46704;-76
2023/06/19 05:44:40;;;;;;;10.47;6.77;;;28.20;3.20;;;;;;5036126;28;46439;-75
2023/06/19 05:47:06;;;;;;;8.73;6.43;;;28.10;3.00;;;;;;5030840;28;46410;-78
2023/06/19 05:49:31;;;;;;;12.43;6.60;;;27.70;3.20;;;;;;5031331;28;46369;-80
2023/06/19 05:51:58;;;;;;;11.67;6.23;;;27.50;3.60;;;;;;5029481;28;46859;-78
2023/06/19 05:54:25;;;;;;;11.30;5.93;;;28.20;2.30;;;;;;5027367;28;46352;-78
2023/06/19 05:56:50;;;;;;;8.80;6.17;;;28.20;2.60;;;;;;5034005;28;47561;-79
2023/06/19 05:59:16;;;;;;;12.13;5.90;;;28.10;3.10;;;;;;5028381;28;46418;-78
2023/06/19 06:01:42;;;;;;;11.30;6.30;;;27.80;3.60;;;;;;5027762;28;46725;-78
2023/06/19 06:04:07;;;;;;;7.90;5.87;;;27.60;4.20;;;;;;5032722;28;46431;-79
2023/06/19 06:06:33;;;;;;;11.60;6.60;;;27.70;4.10;;;;;;5035701;28;46883;-76
2023/06/19 06:08:58;;;;;;;13.00;6.47;;;27.80;3.40;;;;;;5024876;28;46601;-77
2023/06/19 06:11:24;;;;;;;10.63;6.13;;;27.80;3.40;;;;;;5031001;28;46365;-79
2023/06/19 06:13:50;;;;;;;9.73;6.20;;;27.80;3.20;;;;;;5035957;28;46452;-78
2023/06/19 06:16:15;;;;;;;8.73;6.20;;;27.60;3.20;;;;;;5028708;28;47927;-78
2023/06/19 06:18:41;;;;;;;9.80;6.70;;;27.30;3.80;;;;;;5031073;28;46201;-75
2023/06/19 06:21:06;;;;;;;7.90;5.93;;;26.80;4.50;;;;;;5030113;28;46482;-78
2023/06/19 06:23:32;;;;;;;11.17;6.30;;;26.60;4.30;;;;;;5028234;28;46523;-77
2023/06/19 06:26:02;;;;;;;8.37;6.07;;;26.80;4.40;;;;;;5030529;28;46479;-77
2023/06/19 06:28:28;;;;;;;9.23;5.67;;;27.00;4.50;;;;;;5029271;28;46338;-78
2023/06/19 06:30:54;;;;;;;10.60;6.80;;;27.10;3.90;;;;;;5030667;28;46391;-78
2023/06/19 06:33:20;;;;;;;8.23;6.23;;;27.30;4.00;;;;;;5030243;28;46166;-77
2023/06/19 06:35:45;;;;;;;9.30;6.40;;;27.80;3.40;;;;;;5028643;28;46512;-79
2023/06/19 06:38:11;;;;;;;8.07;5.30;;;28.30;2.50;;;;;;5030396;28;48354;-78
2023/06/19 06:40:36;;;;;;;10.70;5.70;;;28.30;2.20;;;;;;5030614;28;46225;-80
2023/06/19 06:43:02;;;;;;;7.00;4.83;;;28.30;2.20;;;;;;5032931;28;46571;-79
2023/06/19 06:45:27;;;;;;;7.70;4.97;;;28.00;2.30;;;;;;5031897;28;46526;-79
2023/06/19 06:47:53;;;;;;;8.73;5.57;;;28.00;2.30;;;;;;5030508;28;46451;-77
2023/06/19 06:50:18;;;;;;;8.90;5.60;;;27.70;2.60;;;;;;5032849;28;45838;-79
2023/06/19 06:52:44;;;;;;;10.50;5.57;;;27.50;3.00;;;;;;5030623;28;46407;-78
2023/06/19 06:55:09;;;;;;;7.47;5.13;;;27.60;2.70;;;;;;5027692;28;47890;-78
2023/06/19 06:57:35;;;;;;;7.40;5.53;;;27.60;2.80;;;;;;5028643;28;46926;-78
2023/06/19 07:00:03;;;;;;;7.83;5.20;;;27.40;3.00;;;;;;5030012;28;46698;-79
2023/06/19 07:02:28;;;;;;;14.70;5.73;;;27.50;2.90;;;;;;5029838;28;46415;-78
2023/06/19 07:04:55;;;;;;;9.63;5.57;;;27.70;2.50;;;;;;5023009;28;49187;-79
2023/06/19 07:07:20;;;;;;;9.27;5.97;;;27.80;2.50;;;;;;5028308;28;47543;-78
2023/06/19 07:09:46;;;;;;;8.50;4.90;;;27.60;2.60;;;;;;5028453;28;46384;-80
2023/06/19 07:12:12;;;;;;;6.60;4.50;;;27.50;2.90;;;;;;5026247;28;46500;-77
2023/06/19 07:14:37;;;;;;;7.00;4.80;;;27.50;2.80;;;;;;5028787;28;46697;-76
2023/06/19 07:17:03;;;;;;;6.90;5.00;;;27.40;3.00;;;;;;5028515;28;46420;-78
2023/06/19 07:19:29;;;;;;;10.67;5.50;;;27.50;2.80;;;;;;5029772;28;46375;-77
2023/06/19 07:21:55;;;;;;;7.83;5.27;;;27.50;3.10;;;;;;5038632;28;46514;-78
2023/06/19 07:24:21;;;;;;;7.77;5.53;;;27.50;3.20;;;;;;5032784;28;48269;-78
2023/06/19 07:26:47;;;;;;;7.03;5.47;;;27.50;3.30;;;;;;5024734;28;46614;-78
2023/06/19 07:29:12;;;;;;;8.67;6.10;;;27.90;3.00;;;;;;5025786;28;46391;-77
2023/06/19 07:31:38;;;;;;;10.63;5.43;;;28.00;2.90;;;;;;5027108;28;46639;-78
2023/06/19 07:34:03;;;;;;;11.00;5.50;;;28.40;2.60;;;;;;5023780;28;46585;-76
2023/06/19 07:36:29;;;;;;;6.63;4.77;;;28.30;2.40;;;;;;5025456;28;46490;-78
2023/06/19 07:38:55;;;;;;;7.03;4.93;;;28.00;2.50;;;;;;5025223;28;46317;-77
2023/06/19 07:41:21;;;;;;;7.07;4.60;;;27.90;2.60;;;;;;5027072;28;47260;-78
2023/06/19 07:43:46;;;;;;;7.90;4.80;;;27.50;3.00;;;;;;5034521;28;48016;-78
2023/06/19 07:46:12;;;;;;;6.50;4.50;;;27.10;3.60;;;;;;5025714;28;46503;-76
2023/06/19 07:48:37;;;;;;;7.83;4.60;;;26.60;4.30;;;;;;5030268;28;46501;-78
2023/06/19 07:51:03;;;;;;;7.93;4.53;;;26.20;5.10;;;;;;5027082;28;46514;-79
2023/06/19 07:53:28;;;;;;;7.37;5.20;;;25.90;5.80;;;;;;5030557;28;47390;-77
2023/06/19 07:55:54;;;;;;;8.30;5.77;;;25.70;6.40;;;;;;5030832;28;50170;-76
2023/06/19 07:58:19;;;;;;;12.07;5.40;;;25.60;6.60;;;;;;5034145;28;46583;-78
2023/06/19 08:00:45;;;;;;;9.70;5.60;;;25.60;7.10;;;;;;5036005;28;46519;-76
2023/06/19 08:03:10;;;;;;;11.43;4.90;;;25.60;7.40;;;;;;5031572;28;46765;-77
2023/06/19 08:05:36;;;;;;;7.30;4.67;;;25.80;6.90;;;;;;5032354;28;46476;-77
2023/06/19 08:08:02;;;;;;;14.00;5.33;;;25.90;6.70;;;;;;5034680;28;46387;-79
2023/06/19 08:10:27;;;;;;;8.00;4.90;;;25.90;6.50;;;;;;5036583;28;46479;-78
2023/06/19 08:12:53;;;;;;;8.43;5.73;;;26.10;6.40;;;;;;5035259;28;46414;-78
2023/06/19 08:15:19;;;;;;;8.40;4.80;;;26.10;6.40;;;;;;5035274;28;48167;-79
2023/06/19 08:17:44;;;;;;;11.53;5.70;;;26.00;6.50;;;;;;5030720;28;46780;-79
2023/06/19 08:20:10;;;;;;;9.90;5.77;;;26.10;6.60;;;;;;5036033;28;46462;-79
2023/06/19 08:22:36;;;;;;;7.60;4.90;;;26.30;6.50;;;;;;5038702;28;48249;-79
2023/06/19 08:25:03;;;;;;;6.43;4.63;;;26.40;6.50;;;;;;5039458;28;46601;-80
2023/06/19 08:27:29;;;;;;;10.73;5.63;;;26.50;6.30;;;;;;5040762;28;46473;-80
2023/06/19 08:29:55;;;;;;;13.90;5.17;;;26.50;6.40;;;;;;5038710;28;46357;-76
2023/06/19 08:32:20;;;;;;;8.77;5.30;;;26.50;6.20;;;;;;5036706;28;46687;-81
2023/06/19 08:34:46;;;;;;;14.90;5.33;;;26.70;6.20;;;;;;5047454;28;46289;-78
2023/06/19 08:37:11;;;;;;;10.83;5.80;;;26.80;6.10;;;;;;5036805;28;46123;-79
2023/06/19 08:39:38;;;;;;;8.33;5.10;;;27.20;5.30;;;;;;5030282;28;46881;-81
2023/06/19 08:42:07;;;;;;;10.13;5.90;;;27.40;4.70;;;;;;5027500;28;48289;-78
2023/06/19 08:44:34;;;;;;;11.90;5.23;;;27.60;4.90;;;;;;5032542;28;46684;-80
2023/06/19 08:47:01;;;;;;;6.90;5.00;;;27.80;5.00;;;;;;5036368;28;46528;-79
2023/06/19 08:49:30;;;;;;;16.03;5.10;;;27.90;5.00;;;;;;5037705;28;47561;-77
2023/06/19 08:51:55;;;;;;;7.47;5.00;;;28.10;4.60;;;;;;5032460;28;46501;-80
2023/06/19 08:54:21;;;;;;;10.10;5.80;;;28.40;3.80;;;;;;5033314;28;45824;-76
2023/06/19 08:56:47;;;;;;;9.20;5.60;;;28.70;3.30;;;;;;5031106;28;45882;-79
2023/06/19 08:59:15;;;;;;;7.67;5.50;;;29.00;2.60;;;;;;5033992;28;46489;-78
2023/06/19 09:01:54;;;;;;;9.80;5.53;;;29.00;2.50;;;;;;5032616;28;46599;-77
2023/06/19 09:04:21;;;;;;;10.70;5.13;;;29.20;2.00;;;;;;5024784;28;46709;-77
2023/06/19 09:06:55;;;;;;;6.90;4.67;;;29.40;1.80;;;;;;5030062;28;46454;-79
2023/06/19 09:09:22;;;;;;;12.07;5.60;;;29.70;1.40;;;;;;5038950;28;46595;-78
2023/06/19 09:12:05;;;;;;;7.80;4.83;;;29.90;1.00;;;;;;5033064;28;46830;-79
2023/06/19 09:14:38;;;;;;;8.43;4.50;;;29.90;1.00;;;;;;5033784;28;46147;-78
2023/06/19 09:17:05;;;;;;;7.97;4.50;;;29.90;1.00;;;;;;5045363;28;46755;-79
2023/06/19 09:19:34;;;;;;;6.67;4.43;;;30.10;1.00;;;;;;5034280;28;46530;-79
2023/06/19 09:22:04;;;;;;;8.40;4.50;;;30.30;1.00;;;;;;5027778;28;46582;-77
2023/06/19 09:24:41;;;;;;;11.73;4.40;;;30.70;1.00;;;;;;5032025;28;46546;-76
2023/06/19 09:27:14;;;;;;;13.33;3.87;;;30.80;1.00;;;;;;5030429;28;46491;-77
2023/06/19 09:29:41;;;;;;;6.70;4.23;;;30.70;1.00;;;;;;5031254;28;46566;-80
2023/06/19 09:32:15;;;;;;;7.90;4.20;;;30.80;1.00;;;;;;5031456;28;46550;-77
2023/06/19 09:34:40;;;;;;;8.23;4.10;;;30.80;1.00;;;;;;5040743;28;46479;-79
2023/06/19 09:37:08;;;;;;;11.17;4.27;;;30.80;1.00;;;;;;5030396;28;46939;-77
2023/06/19 09:39:37;;;;;;;5.93;3.90;;;30.60;1.00;;;;;;5030131;28;46590;-79
2023/06/19 09:42:03;;;;;;;12.33;4.43;;;30.70;1.00;;;;;;5032998;28;46646;-77
2023/06/19 09:44:35;;;;;;;6.30;3.93;;;30.60;1.00;;;;;;5039131;28;46863;-80
2023/06/19 09:47:06;;;;;;;7.97;3.40;;;30.20;1.00;;;;;;5034672;28;46495;-79
2023/06/19 09:49:34;;;;;;;4.47;2.63;;;29.70;1.00;;;;;;5038613;28;46479;-79
2023/06/19 09:51:59;;;;;;;5.97;3.43;;;29.60;1.00;;;;;;5036393;28;47237;-77
2023/06/19 09:54:25;;;;;;;5.70;3.70;;;29.30;1.00;;;;;;5035196;28;46475;-76
2023/06/19 09:56:55;;;;;;;5.07;3.07;;;28.70;1.00;;;;;;5031351;28;46619;-77
2023/06/19 09:59:22;;;;;;;7.03;3.20;;;28.30;1.20;;;;;;5035907;28;46438;-76
2023/06/19 10:01:49;;;;;;;7.90;3.50;;;28.10;1.40;;;;;;5029648;28;46681;-77
2023/06/19 10:04:16;;;;;;;5.90;3.23;;;28.00;1.60;;;;;;5039413;28;46596;-78
2023/06/19 10:06:46;;;;;;;5.40;2.70;;;27.80;1.90;;;;;;5037493;28;45858;-77
2023/06/19 10:09:17;;;;;;;8.83;3.00;;;27.60;2.00;;;;;;5027429;28;46665;-77
2023/06/19 10:11:51;;;;;;;5.73;3.20;;;27.70;2.10;;;;;;5021985;28;46845;-76
2023/06/19 10:14:18;;;;;;;6.30;3.40;;;27.60;3.10;;;;;;5029433;28;47190;-77
2023/06/19 10:16:44;;;;;;;10.70;3.23;;;27.70;2.20;;;;;;5031388;28;46460;-77
2023/06/19 10:19:18;;;;;;;6.90;3.37;;;28.00;1.80;;;;;;5027131;28;46492;-77
2023/06/19 10:21:48;;;;;;;5.40;3.40;;;28.00;1.70;;;;;;5028439;28;47337;-76
2023/06/19 10:24:18;;;;;;;5.83;3.60;;;28.10;1.40;;;;;;5032867;28;46716;-79
2023/06/19 10:26:44;;;;;;;5.70;3.47;;;28.20;1.50;;;;;;5031566;28;46404;-75
2023/06/19 10:29:18;;;;;;;5.67;3.33;;;28.30;1.70;;;;;;5032786;28;46520;-78
2023/06/19 10:31:45;;;;;;;6.90;3.47;;;28.30;1.60;;;;;;5031403;28;48409;-78
2023/06/19 10:34:11;;;;;;;5.63;3.40;;;28.30;1.80;;;;;;5033646;28;46475;-77
2023/06/19 10:36:37;;;;;;;6.03;3.30;;;28.20;1.70;;;;;;5032260;28;46315;-78
2023/06/19 10:39:03;;;;;;;4.63;3.17;;;28.00;2.10;;;;;;5030174;28;46490;-78
2023/06/19 10:41:28;;;;;;;4.40;2.83;;;28.40;1.80;;;;;;5031264;28;48236;-82
2023/06/19 10:44:12;;;;;;;4.27;2.47;;;28.80;1.50;;;;;;5023417;28;47296;-80
2023/06/19 10:46:38;;;;;;;4.10;2.27;;;29.20;1.10;;;;;;5026114;28;46706;-80
2023/06/19 10:49:07;;;;;;;6.70;2.30;;;29.30;1.00;;;;;;5041364;28;47566;-80
2023/06/19 10:51:36;;;;;;;3.40;1.87;;;29.30;1.00;;;;;;5026166;28;47254;-78
2023/06/19 10:54:02;;;;;;;5.70;2.20;;;29.10;1.00;;;;;;5028943;28;46935;-79
2023/06/19 10:56:28;;;;;;;5.27;2.17;;;29.30;1.00;;;;;;5024300;28;46745;-78
2023/06/19 10:59:01;;;;;;;6.17;2.20;;;29.30;1.00;;;;;;5028702;28;46583;-80
2023/06/19 11:01:35;;;;;;;7.50;2.30;;;29.40;1.00;;;;;;5028273;28;48058;-80
2023/06/19 11:04:03;;;;;;;5.17;2.80;;;29.20;1.00;;;;;;5024988;28;47023;-80
2023/06/19 11:06:28;;;;;;;4.47;2.20;;;29.00;1.00;;;;;;5029859;28;46061;-78
2023/06/19 11:08:56;;;;;;;3.43;1.80;;;28.70;1.00;;;;;;5031921;28;46458;-78
2023/06/19 11:11:21;;;;;;;5.27;2.47;;;28.60;1.00;;;;;;5029525;28;46588;-77
2023/06/19 11:13:47;;;;;;;4.40;2.67;;;28.50;1.00;;;;;;5027782;28;46665;-79
2023/06/19 11:16:14;;;;;;;3.87;2.33;;;28.80;1.00;;;;;;5029077;28;46438;-79
2023/06/19 11:18:40;;;;;;;4.50;2.70;;;29.20;1.00;;;;;;5030935;28;46642;-77
2023/06/19 11:21:05;;;;;;;3.60;2.00;;;29.30;1.00;;;;;;5031012;28;48192;-77
2023/06/19 11:23:31;;;;;;;4.20;2.40;;;29.40;1.00;;;;;;5031557;28;46548;-82
2023/06/19 11:26:04;;;;;;;3.87;2.00;;;29.40;1.00;;;;;;5024243;28;46589;-76
2023/06/19 11:28:30;;;;;;;4.07;2.43;;;29.50;1.00;;;;;;5016209;28;47048;-80
2023/06/19 11:31:01;;;;;;;3.70;2.20;;;29.60;1.00;;;;;;5025711;28;46506;-79
2023/06/19 11:33:26;;;;;;;4.83;2.90;;;29.70;1.00;;;;;;5024009;28;46848;-80
2023/06/19 11:35:53;;;;;;;5.17;2.80;;;29.70;1.00;;;;;;5023005;28;46561;-81
2023/06/19 11:38:19;;;;;;;4.23;2.40;;;29.60;1.00;;;;;;5028371;28;46445;-80
2023/06/19 11:40:45;;;;;;;4.93;2.53;;;29.70;1.00;;;;;;5030528;28;50510;-80
2023/06/19 11:43:11;;;;;;;4.50;2.50;;;29.60;1.00;;;;;;5033760;28;46508;-80
2023/06/19 11:45:49;;;;;;;5.07;3.13;;;29.60;1.00;;;;;;5028236;28;46493;-80
2023/06/19 11:48:24;;;;;;;4.97;2.90;;;29.50;1.00;;;;;;5028789;28;46454;-80
2023/06/19 11:50:51;;;;;;;4.90;2.90;;;29.40;1.00;;;;;;5026743;28;47588;-76
2023/06/19 11:53:17;;;;;;;5.90;2.83;;;29.60;1.00;;;;;;5023516;28;46337;-77
2023/06/19 11:55:43;;;;;;;5.07;3.20;;;29.60;1.00;;;;;;5029650;28;46751;-80
2023/06/19 11:58:09;;;;;;;6.50;3.37;;;29.40;1.00;;;;;;5030901;28;46739;-81
2023/06/19 12:00:37;;;;;;;6.50;3.20;;;29.60;1.00;;;;;;5034733;28;48264;-82
2023/06/19 12:03:03;;;;;;;5.87;2.97;;;29.60;1.00;;;;;;5030428;28;46293;-82
2023/06/19 12:05:29;;;;;;;5.00;3.10;;;29.80;1.00;;;;;;5020344;28;47120;-80
2023/06/19 12:07:55;;;;;;;4.53;2.90;;;29.60;1.00;;;;;;5023114;28;46851;-79
2023/06/19 12:10:20;;;;;;;6.90;3.17;;;29.40;1.00;;;;;;5022583;28;46605;-83
2023/06/19 12:12:46;;;;;;;5.23;3.10;;;29.10;1.00;;;;;;5030209;28;46593;-82
2023/06/19 12:15:11;;;;;;;4.83;3.27;;;29.20;1.00;;;;;;5027266;28;46623;-79
2023/06/19 12:17:37;;;;;;;5.60;3.30;;;29.30;1.00;;;;;;5030806;28;46948;-80
2023/06/19 12:20:05;;;;;;;4.53;2.80;;;29.70;1.00;;;;;;5025820;28;47042;-79
2023/06/19 12:22:32;;;;;;;11.00;3.27;;;29.90;1.00;;;;;;5033527;28;46490;-81
2023/06/19 12:24:58;;;;;;;5.60;3.10;;;30.00;1.00;;;;;;5027615;28;46437;-79
2023/06/19 12:27:23;;;;;;;6.80;2.90;;;29.80;1.00;;;;;;5031979;28;46893;-80
2023/06/19 12:29:49;;;;;;;7.50;2.70;;;29.70;1.00;;;;;;5030233;28;46899;-79
2023/06/19 12:32:14;;;;;;;4.53;2.77;;;29.60;1.00;;;;;;5023751;28;46497;-77
2023/06/19 12:34:40;;;;;;;8.53;3.00;;;29.70;1.00;;;;;;5026905;28;46936;-83
2023/06/19 12:37:06;;;;;;;4.37;2.77;;;29.80;1.00;;;;;;5029955;28;46459;-79
2023/06/19 12:39:32;;;;;;;4.50;2.83;;;29.90;1.00;;;;;;5028492;28;47999;-77
2023/06/19 12:41:58;;;;;;;8.80;3.00;;;30.10;1.00;;;;;;5025906;28;46434;-82